createdAt,value
2023-01-01T00:01:39.962Z,0.65
2023-01-01T00:04:42.155Z,0.77
2023-01-01T00:07:44.199Z,0.55
2023-01-01T00:10:45.533Z,0.50
2023-01-01T00:13:49.594Z,0.90
2023-01-01T00:16:53.397Z,0.70
2023-01-01T00:19:54.935Z,0.63
2023-01-01T00:25:58.621Z,0.65
2023-01-01T00:35:04.291Z,0.60
2023-01-01T00:38:06.834Z,0.50
2023-01-01T00:41:08.685Z,0.60
2023-01-01T00:44:10.056Z,0.68
2023-01-01T00:47:11.471Z,0.60
2023-01-01T00:53:14.783Z,0.50
2023-01-01T00:56:16.179Z,0.60
2023-01-01T00:59:17.547Z,0.50
2023-01-01T01:02:19.235Z,0.60
2023-01-01T01:05:20.830Z,0.68
2023-01-01T01:11:32.334Z,0.88
2023-01-01T01:14:33.714Z,0.60
2023-01-01T01:17:36.650Z,0.60
2023-01-01T01:20:38.130Z,0.70
2023-01-01T01:26:41.448Z,0.70
2023-01-01T01:29:42.876Z,0.70
2023-01-01T01:35:50.663Z,0.40
2023-01-01T01:38:54.295Z,0.65
2023-01-01T01:41:55.655Z,0.70
2023-01-01T01:44:59.330Z,0.55
2023-01-01T01:48:00.957Z,0.50
2023-01-01T01:51:02.640Z,0.40
2023-01-01T01:54:10.232Z,0.50
2023-01-01T01:57:13.067Z,0.60
2023-01-01T02:00:15.931Z,0.50
2023-01-01T02:03:22.093Z,0.68
2023-01-01T02:06:24.419Z,0.85
2023-01-01T02:09:26.755Z,0.50
2023-01-01T02:12:28.676Z,0.60
2023-01-01T02:15:36.238Z,0.47
2023-01-01T02:18:45.926Z,0.45
2023-01-01T02:21:59.116Z,0.50
2023-01-01T02:25:10.832Z,0.50
2023-01-01T02:28:20.499Z,0.70
2023-01-01T02:31:27.254Z,0.45
2023-01-01T02:34:34.436Z,0.40
2023-01-01T02:37:36.987Z,0.50
2023-01-01T02:40:43.603Z,0.40
2023-01-01T02:43:45.289Z,0.75
2023-01-01T02:46:47.481Z,0.50
2023-01-01T02:49:58.694Z,0.60
2023-01-01T02:53:09.493Z,0.50
2023-01-01T02:56:18.568Z,0.30
2023-01-01T02:59:46.566Z,0.47
2023-01-01T03:03:05.019Z,0.30
2023-01-01T03:06:27.575Z,0.50
2023-01-01T03:09:38.763Z,0.38
2023-01-01T03:12:47.162Z,0.47
2023-01-01T03:15:59.025Z,0.63
2023-01-01T03:19:11.814Z,0.50
2023-01-01T03:22:17.079Z,0.30
2023-01-01T03:25:22.320Z,0.50
2023-01-01T03:28:28.293Z,0.60
2023-01-01T03:31:31.066Z,0.85
2023-01-01T03:34:36.622Z,0.60
2023-01-01T03:37:38.020Z,0.30
2023-01-01T03:40:40.153Z,0.52
2023-01-01T03:43:48.597Z,0.40
2023-01-01T03:46:50.376Z,0.40
2023-01-01T03:49:52.411Z,0.50
2023-01-01T03:53:00.854Z,0.40
2023-01-01T03:56:13.041Z,0.60
2023-01-01T03:59:18.880Z,0.40
2023-01-01T04:02:25.700Z,0.30
2023-01-01T04:05:29.077Z,0.40
2023-01-01T04:08:32.780Z,0.30
2023-01-01T04:11:47.662Z,0.45
2023-01-01T04:14:50.511Z,0.60
2023-01-01T04:17:52.326Z,0.45
2023-01-01T04:20:54.316Z,0.40
2023-01-01T04:23:55.683Z,0.40
2023-01-01T04:26:57.092Z,0.55
2023-01-01T04:32:59.694Z,0.30
2023-01-01T04:39:05.328Z,0.60
2023-01-01T04:42:06.794Z,0.40
2023-01-01T04:48:10.653Z,0.40
2023-01-01T04:51:14.932Z,0.40
2023-01-01T04:54:16.315Z,0.45
2023-01-01T04:57:17.733Z,0.52
2023-01-01T05:00:20.554Z,0.40
2023-01-01T05:03:21.962Z,0.30
2023-01-01T05:06:24.882Z,0.30
2023-01-01T05:09:26.321Z,0.50
2023-01-01T05:15:31.115Z,0.40
2023-01-01T05:18:33.431Z,0.40
2023-01-01T05:21:37.735Z,0.25
2023-01-01T05:24:39.136Z,0.40
2023-01-01T05:27:40.599Z,0.30
2023-01-01T05:33:44.239Z,0.28
2023-01-01T05:36:46.236Z,0.25
2023-01-01T05:39:48.507Z,0.40
2023-01-01T05:42:49.976Z,0.40
2023-01-01T05:49:03.915Z,0.30
2023-01-01T05:52:05.889Z,0.32
2023-01-01T05:55:07.721Z,0.50
2023-01-01T05:58:09.146Z,0.60
2023-01-01T06:01:12.931Z,0.20
2023-01-01T06:04:14.498Z,0.22
2023-01-01T06:07:16.601Z,0.35
2023-01-01T06:10:18.020Z,0.50
2023-01-01T06:13:19.458Z,0.40
2023-01-01T06:22:24.882Z,0.30
2023-01-01T06:25:26.248Z,0.40
2023-01-01T06:28:27.631Z,0.25
2023-01-01T06:31:34.078Z,0.50
2023-01-01T06:34:38.953Z,0.40
2023-01-01T06:37:40.956Z,0.30
2023-01-01T06:40:42.344Z,0.50
2023-01-01T06:43:45.023Z,0.40
2023-01-01T06:46:46.662Z,0.30
2023-01-01T06:49:48.012Z,0.38
2023-01-01T06:52:49.967Z,0.28
2023-01-01T06:55:56.800Z,0.22
2023-01-01T06:58:59.056Z,0.47
2023-01-01T07:02:00.525Z,0.30
2023-01-01T07:08:04.148Z,0.35
2023-01-01T07:11:05.627Z,0.28
2023-01-01T07:17:08.557Z,0.40
2023-01-01T07:23:12.122Z,0.20
2023-01-01T07:26:13.490Z,0.32
2023-01-01T07:29:14.936Z,0.20
2023-01-01T07:35:17.579Z,0.40
2023-01-01T07:38:19.523Z,0.30
2023-01-01T07:41:21.104Z,0.55
2023-01-01T07:47:25.585Z,0.30
2023-01-01T07:50:29.192Z,0.20
2023-01-01T07:53:31.245Z,0.20
2023-01-01T07:56:33.728Z,0.30
2023-01-01T07:59:36.345Z,0.20
2023-01-01T08:02:37.857Z,0.20
2023-01-01T08:08:41.420Z,0.20
2023-01-01T08:11:42.908Z,0.40
2023-01-01T08:17:47.232Z,0.20
2023-01-01T08:20:48.878Z,0.22
2023-01-01T08:23:50.919Z,0.17
2023-01-01T08:26:52.546Z,0.20
2023-01-01T08:29:53.895Z,0.20
2023-01-01T08:32:55.381Z,0.10
2023-01-01T08:38:59.961Z,0.35
2023-01-01T08:42:03.770Z,0.28
2023-01-01T08:45:08.346Z,0.30
2023-01-01T08:48:10.669Z,0.32
2023-01-01T08:51:12.111Z,0.30
2023-01-01T08:54:14.040Z,0.30
2023-01-01T08:57:15.446Z,0.40
2023-01-01T09:00:17.571Z,0.22
2023-01-01T09:03:19.120Z,0.30
2023-01-01T09:09:29.143Z,0.20
2023-01-01T09:12:32.649Z,0.30
2023-01-01T09:15:34.537Z,0.35
2023-01-01T09:21:37.279Z,0.40
2023-01-01T09:24:39.268Z,0.15
2023-01-01T09:27:40.633Z,0.30
2023-01-01T09:30:42.106Z,0.30
2023-01-01T09:36:45.595Z,0.25
2023-01-01T09:39:47.674Z,0.20
2023-01-01T09:42:53.209Z,0.30
2023-01-01T09:45:59.873Z,0.38
2023-01-01T09:49:06.166Z,0.20
2023-01-01T09:52:12.862Z,0.30
2023-01-01T09:55:23.752Z,0.30
2023-01-01T09:58:27.871Z,0.20
2023-01-01T10:01:42.656Z,0.20
2023-01-01T10:04:57.767Z,0.30
2023-01-01T10:08:04.275Z,0.30
2023-01-01T10:11:15.523Z,0.40
2023-01-01T10:14:25.831Z,0.10
2023-01-01T10:17:34.201Z,0.52
2023-01-01T10:20:41.075Z,0.30
2023-01-01T10:23:46.711Z,0.40
2023-01-01T10:26:50.406Z,0.30
2023-01-01T10:29:55.520Z,0.40
2023-01-01T10:33:00.057Z,0.30
2023-01-01T10:36:02.175Z,0.30
2023-01-01T10:39:03.660Z,0.20
2023-01-01T10:48:16.505Z,0.30
2023-01-01T10:51:25.986Z,0.30
2023-01-01T10:54:33.998Z,0.25
2023-01-01T10:57:37.939Z,0.30
2023-01-01T11:00:39.345Z,0.30
2023-01-01T11:03:57.173Z,0.20
2023-01-01T11:06:58.835Z,0.30
2023-01-01T11:10:04.463Z,0.38
2023-01-01T11:13:17.825Z,0.25
2023-01-01T11:16:19.849Z,0.35
2023-01-01T11:19:24.253Z,0.30
2023-01-01T11:22:40.616Z,0.30
2023-01-01T11:25:57.907Z,0.30
2023-01-01T11:29:04.695Z,0.30
2023-01-01T11:32:08.198Z,0.20
2023-01-01T11:35:17.645Z,0.40
2023-01-01T11:38:25.889Z,0.20
2023-01-01T11:41:40.938Z,0.20
2023-01-01T11:44:46.825Z,0.20
2023-01-01T11:47:54.597Z,0.20
2023-01-01T11:51:00.232Z,0.52
2023-01-01T11:54:11.115Z,0.30
2023-01-01T11:57:17.084Z,0.20
2023-01-01T12:00:19.419Z,0.30
2023-01-01T12:03:31.337Z,0.22
2023-01-01T12:06:40.960Z,0.25
2023-01-01T12:09:50.549Z,0.40
2023-01-01T12:12:58.191Z,0.30
2023-01-01T12:16:09.427Z,0.40
2023-01-01T12:19:15.000Z,0.20
2023-01-01T12:22:19.026Z,0.10
2023-01-01T12:25:21.008Z,0.20
2023-01-01T12:28:33.474Z,0.30
2023-01-01T12:31:43.998Z,0.30
2023-01-01T12:34:51.654Z,0.13
2023-01-01T12:38:01.521Z,0.20
2023-01-01T12:41:11.140Z,0.20
2023-01-01T12:44:24.365Z,0.20
2023-01-01T12:47:37.698Z,0.10
2023-01-01T12:50:55.006Z,0.30
2023-01-01T12:54:14.256Z,0.20
2023-01-01T12:57:24.597Z,0.30
2023-01-01T13:00:27.850Z,0.10
2023-01-01T13:03:35.958Z,0.20
2023-01-01T13:06:41.265Z,0.30
2023-01-01T13:09:44.623Z,0.17
2023-01-01T13:12:46.529Z,0.20
2023-01-01T13:15:53.079Z,0.22
2023-01-01T13:19:00.753Z,0.22
2023-01-01T13:22:29.030Z,0.10
2023-01-01T13:25:30.728Z,0.20
2023-01-01T13:28:32.172Z,0.20
2023-01-01T13:35:19.053Z,0.30
2023-01-01T13:38:49.028Z,0.20
2023-01-01T13:41:51.048Z,0.30
2023-01-01T13:44:52.412Z,0.30
2023-01-01T13:48:13.411Z,0.38
2023-01-01T13:52:03.604Z,0.20
2023-01-01T13:55:28.607Z,0.47
2023-01-01T13:58:55.680Z,0.50
2023-01-01T14:02:11.285Z,0.50
2023-01-01T14:05:16.938Z,0.45
2023-01-01T14:08:29.267Z,0.30
2023-01-01T14:11:30.767Z,0.40
2023-01-01T14:17:36.662Z,0.52
2023-01-01T14:23:44.800Z,0.40
2023-01-01T14:26:46.784Z,0.60
2023-01-01T14:29:51.007Z,0.40
2023-01-01T14:32:56.501Z,0.50
2023-01-01T14:35:59.735Z,0.50
2023-01-01T14:39:01.221Z,0.40
2023-01-01T14:45:14.354Z,0.50
2023-01-01T14:48:19.852Z,0.40
2023-01-01T14:51:23.591Z,0.50
2023-01-01T14:54:30.740Z,0.50
2023-01-01T14:57:34.878Z,0.43
2023-01-01T15:00:37.179Z,0.40
2023-01-01T15:03:38.596Z,0.30
2023-01-01T15:06:40.919Z,0.50
2023-01-01T15:09:42.389Z,0.35
2023-01-01T15:15:47.321Z,0.40
2023-01-01T15:18:50.554Z,0.40
2023-01-01T15:21:52.673Z,0.43
2023-01-01T15:24:54.452Z,0.40
2023-01-01T15:27:57.214Z,0.60
2023-01-01T15:30:59.860Z,0.50
2023-01-01T15:34:01.654Z,0.50
2023-01-01T15:37:10.007Z,0.47
2023-01-01T15:40:31.327Z,0.70
2023-01-01T15:43:32.840Z,0.70
2023-01-01T15:52:38.340Z,0.63
2023-01-01T15:55:44.732Z,0.50
2023-01-01T15:58:53.121Z,0.70
2023-01-01T16:02:10.277Z,0.70
2023-01-01T16:05:15.038Z,0.75
2023-01-01T16:08:16.850Z,0.60
2023-01-01T16:11:18.236Z,0.68
2023-01-01T16:14:20.028Z,0.60
2023-01-01T16:17:21.980Z,0.55
2023-01-01T16:20:24.581Z,0.70
2023-01-01T16:23:26.206Z,0.75
2023-01-01T16:26:27.661Z,0.82
2023-01-01T16:32:31.227Z,0.60
2023-01-01T16:35:32.739Z,0.77
2023-01-01T16:41:35.455Z,0.60
2023-01-01T16:44:40.763Z,0.70
2023-01-01T16:47:42.718Z,0.80
2023-01-01T16:50:44.141Z,0.63
2023-01-01T16:53:46.001Z,0.60
2023-01-01T16:56:47.376Z,0.70
2023-01-01T16:59:48.775Z,0.60
2023-01-01T17:02:50.922Z,0.50
2023-01-01T17:05:52.497Z,0.70
2023-01-01T17:11:55.241Z,0.60
2023-01-01T17:17:58.953Z,0.70
2023-01-01T17:21:03.655Z,0.50
2023-01-01T17:24:05.747Z,0.60
2023-01-01T17:27:07.234Z,0.70
2023-01-01T17:36:13.317Z,0.73
2023-01-01T17:39:15.403Z,0.65
2023-01-01T17:42:16.907Z,0.73
2023-01-01T17:48:20.115Z,0.70
2023-01-01T17:51:21.707Z,0.70
2023-01-01T17:54:23.117Z,0.77
2023-01-01T17:57:24.717Z,0.70
2023-01-01T18:03:29.481Z,1.10
2023-01-01T18:06:35.061Z,0.90
2023-01-01T18:09:40.308Z,1.00
2023-01-01T18:15:42.961Z,0.80
2023-01-01T18:21:46.133Z,0.90
2023-01-01T18:24:47.484Z,0.50
2023-01-01T18:27:57.195Z,0.65
2023-01-01T18:31:04.667Z,0.50
2023-01-01T18:34:07.046Z,0.60
2023-01-01T18:37:08.633Z,0.60
2023-01-01T18:40:12.564Z,0.60
2023-01-01T18:43:17.271Z,0.60
2023-01-01T18:46:19.732Z,0.88
2023-01-01T18:49:23.034Z,0.40
2023-01-01T18:52:26.224Z,0.50
2023-01-01T18:55:27.811Z,0.60
2023-01-01T18:58:31.712Z,0.70
2023-01-01T19:01:33.429Z,0.50
2023-01-01T19:04:35.751Z,0.57
2023-01-01T19:07:37.259Z,0.50
2023-01-01T19:13:41.260Z,0.30
2023-01-01T19:16:43.883Z,0.45
2023-01-01T19:19:47.656Z,0.38
2023-01-01T19:22:49.399Z,0.52
2023-01-01T19:25:51.726Z,0.30
2023-01-01T19:28:55.094Z,0.30
2023-01-01T19:31:57.837Z,0.40
2023-01-01T19:35:00.387Z,0.40
2023-01-01T19:38:01.843Z,0.50
2023-01-01T19:41:03.288Z,0.30
2023-01-01T19:47:13.287Z,0.20
2023-01-01T19:50:15.323Z,0.35
2023-01-01T19:53:16.732Z,0.45
2023-01-01T19:56:18.370Z,0.25
2023-01-01T19:59:19.748Z,0.35
2023-01-01T20:02:50.102Z,0.32
2023-01-01T20:05:43.197Z,0.30
2023-01-01T20:08:44.586Z,0.50
2023-01-01T20:11:50.503Z,0.30
2023-01-01T20:14:53.000Z,0.30
2023-01-01T20:17:54.404Z,0.30
2023-01-01T20:21:08.783Z,0.30
2023-01-01T20:24:10.522Z,0.22
2023-01-01T20:27:13.331Z,0.40
2023-01-01T20:30:14.776Z,0.30
2023-01-01T20:36:34.172Z,0.30
2023-01-01T20:39:35.801Z,0.35
2023-01-01T20:42:37.230Z,0.35
2023-01-01T20:48:39.915Z,0.20
2023-01-01T20:51:42.005Z,0.20
2023-01-01T20:54:43.362Z,0.47
2023-01-01T20:57:44.820Z,0.17
2023-01-01T21:03:47.799Z,0.20
2023-01-01T21:06:49.809Z,0.10
2023-01-01T21:09:51.261Z,0.20
2023-01-01T21:15:56.044Z,0.13
2023-01-01T21:18:58.586Z,0.20
2023-01-01T21:22:00.614Z,0.20
2023-01-01T21:25:49.109Z,0.20
2023-01-01T21:28:34.560Z,0.10
2023-01-01T21:34:41.194Z,0.15
2023-01-01T21:37:47.451Z,0.10
2023-01-01T21:40:51.604Z,0.20
2023-01-01T21:43:55.420Z,0.10
2023-01-01T21:47:01.679Z,0.10
2023-01-01T21:50:20.956Z,0.10
2023-01-01T21:53:27.187Z,0.20
2023-01-01T21:56:33.278Z,0.10
2023-01-01T21:59:37.436Z,0.20
2023-01-01T22:02:39.311Z,0.20
2023-01-01T22:05:41.686Z,0.40
2023-01-01T22:08:45.637Z,0.40
2023-01-01T22:11:48.032Z,0.30
2023-01-01T22:14:51.803Z,0.20
2023-01-01T22:17:58.224Z,0.30
2023-01-01T22:21:01.910Z,0.35
2023-01-01T22:24:29.126Z,0.20
2023-01-01T22:27:34.490Z,0.30
2023-01-01T22:30:40.537Z,0.20
2023-01-01T22:33:45.376Z,0.10
2023-01-01T22:36:47.269Z,0.20
2023-01-01T22:39:50.673Z,0.10
2023-01-01T22:42:52.258Z,0.22
2023-01-01T22:45:53.819Z,0.30
2023-01-01T22:48:59.318Z,0.30
2023-01-01T22:52:02.106Z,0.30
2023-01-01T22:55:04.702Z,0.25
2023-01-01T22:58:06.054Z,0.40
2023-01-01T23:01:07.605Z,0.25
2023-01-01T23:04:09.063Z,0.40
2023-01-01T23:07:13.610Z,0.32
2023-01-01T23:10:15.748Z,0.73
2023-01-01T23:13:28.856Z,0.60
2023-01-01T23:16:30.397Z,0.50
2023-01-01T23:22:37.770Z,0.60
2023-01-01T23:25:39.741Z,0.60
2023-01-01T23:28:42.161Z,0.60
2023-01-01T23:31:44.886Z,0.70
2023-01-01T23:34:46.576Z,0.60
2023-01-01T23:37:47.988Z,0.40
2023-01-01T23:40:50.005Z,0.47
2023-01-01T23:43:51.416Z,0.50
2023-01-01T23:46:53.346Z,0.47
2023-01-01T23:49:54.778Z,0.70
2023-01-01T23:55:58.168Z,0.52
2023-01-01T23:58:59.542Z,0.50
